KAVX/AVX METAR and TAF weather

Enter ICAO airport designator
Station Type Date Time Source
KAVX METAR 2020/09/19 05:51 UTC NOAA

KAVX 190551Z AUTO 29010KT 10SM CLR 27/06 A2995 RMK AO2 SLP101 T02670056 10278 20233 51006


Station Type Date Time Source
KAVX Decoded METAR 2020/09/19 05:51 UTC NOAA

AVALON CATALINA AIRPORT, CA, United States (KAVX) 33-24N 118-25W 482M
Sep 19, 2020 - 01:51 AM EDT / 2020.09.19 0551 UTC
Wind: from the WNW (290 degrees) at 12 MPH (10 KT):0
Visibility: 10 mile(s):0
Sky conditions: clear
Temperature: 80.1 F (26.7 C)
Dew Point: 42.1 F (5.6 C)
Relative Humidity: 25%
Pressure (altimeter): 29.95 in. Hg (1014 hPa)
Pressure tendency: 0.02 inches (0.6 hPa) higher than three hours ago
ob: KAVX 190551Z AUTO 29010KT 10SM CLR 27/06 A2995 RMK AO2 SLP101 T02670056 10278 20233 51006
cycle: 6

Station Type Date Time Source
KAVX TAF UTC NOAA

Error!

Example: see airport list